Terminal Aerodrome Forecast
Issued by NWS Billings, MT

Home | Current Version | Previous Version | Text Only | Print | Product List | Glossary On
Versions: 1 2 3 4 5 6 7 8 9 10 11 12 13 14 15 16 17 18 19 20 21 22 23 24 25 26
000
FTUS45 KBYZ 111727
TAFSHR
TAF
KSHR 111727Z 1118/1218 02009KT P6SM FEW100
     FM112100 09005KT P6SM VCTS FEW080CB SCT100
     FM120200 23005KT P6SM VCTS FEW080CB SCT100
     FM120600 31006KT P6SM SCT100
     FM121100 32012KT P6SM SCT070=

USA.gov is the U.S. government's official web portal to all federal, state and local government web resources and services.